Mount Kisco, NY (10549)

5:31 PM EDT on September 01, 2015 (GMT -0400)
Bedford Corners | | Change Station
CLOSE
Current Station
Personal Weather Station
Location: Mount Kisco, NY
Elevation: 577 ft
Nearby Weather Stations

Elev 577 ft 41.20 °N, 73.68 °W | Updated 10 minutes ago

Partly Cloudy
Partly Cloudy
83.9 °F
Feels Like 87 °F
N
0.0
Wind Variable Wind from SSW
Gusts 2.0 mph

Today
High -- | Low -- °F
--% Chance of Precip.
Yesterday
High -- | Low -- °F
Precip. -- in
6:21 AM 7:28 PM
Waning Gibbous, 86% visible
Pressure 30.00 in
Visibility 10.0 miles
Clouds Scattered Clouds 5000 ft
Heat Index 87 °F
Dew Point 67 °F
Humidity 58%
Rainfall 0.00 in
Snow Depth Not available.
UV 2 out of 12
Pollen 9.50 out of 12
Air Quality Not available.
Flu Activity Not available.
METAR KHPN 012056Z 14004KT 10SM SCT050 29/16 A3001 RMK AO2 SLP157 T02940156 56012
Pressure 30.00 in
Visibility 10.0 miles
Clouds Scattered Clouds 5000 ft
Heat Index 87 °F
Dew Point 67 °F
Humidity 58%
Rainfall 0.00 in
Snow Depth Not available.
UV 2 out of 12
Pollen 9.50 out of 12
Air Quality Not available.
Flu Activity Not available.
METAR KHPN 012056Z 14004KT 10SM SCT050 29/16 A3001 RMK AO2 SLP157 T02940156 56012

10-Day Weather Forecast

×

Almanac

Astronomy

Sep. 01, 2015 Rise Set
Actual Time
Civil Twilight
Nautical Twilight
Astronomical Twilight
Moon
Length of Visible Light
Length of Day
Tomorrow will be .
, % of the Moon is Illuminated

Today's Extremes

State Highs State Lows

Community

WunderPhotos

Upload Photos

1,851,628 photos uploaded!

WunderBlogs® & News

Nearby

Air Quality

  Air Quality AQ Index Pollutant
Not available.

Snow Depth

Station Depth Elevation

Earthquake Activity

City Distance Mag. Time & Date
Minimum magnitude displayed is 2.5.

Coastal Water Temperatures

Place Temperature

Stations

Nearby Weather Stations

Station Location Temp. Windchill Dew Point Humidity Wind Precip. Elev Updated Type